BEL9YD LPFR-EBBR
Flight info
| Callsign | BEL9YD |
|---|---|
| Flight time | N/A |
| Altitude | 36000 |
| Route | EVURA DCT BARDI DCT DELOG DCT YURZI UL14 TEPRA UN867 MOKOR DCT VEKIN DCT ARVOL |
| Aircraft | A20N/M-DE3FGHIJ1LORVWY/HB1G1 |
Departure
| Time | N/A |
|---|---|
| Airport | Faro - Gago Coutinho International Airport (LPFR) |
Arrival
| Time | 2026-05-07 16:59 |
|---|---|
| Airport | Brussels Airport (EBBR) |
| Time | Latitude | Longitude | Altitude | Speed | Heading |
|---|---|---|---|---|---|
| 2026-05-07 16:09 | 47.78650 | -0.89275 | 36988 ft | 453 kts | 44° |
| 2026-05-07 16:10 | 47.80877 | -0.86002 | 36986 ft | 454 kts | 44° |
| 2026-05-07 16:10 | 47.85364 | -0.79390 | 36989 ft | 453 kts | 44° |
| 2026-05-07 16:11 | 47.89830 | -0.72797 | 36992 ft | 453 kts | 44° |
| 2026-05-07 16:11 | 47.94291 | -0.66190 | 36995 ft | 453 kts | 44° |
| 2026-05-07 16:12 | 47.98739 | -0.59585 | 36990 ft | 453 kts | 44° |
| 2026-05-07 16:12 | 48.03205 | -0.52937 | 36990 ft | 452 kts | 44° |
| 2026-05-07 16:13 | 48.07639 | -0.46321 | 36991 ft | 452 kts | 44° |
| 2026-05-07 16:13 | 48.12099 | -0.39661 | 36986 ft | 452 kts | 44° |
| 2026-05-07 16:14 | 48.16529 | -0.33057 | 36991 ft | 452 kts | 45° |
| 2026-05-07 16:14 | 48.20959 | -0.26385 | 36993 ft | 452 kts | 45° |
| 2026-05-07 16:15 | 48.25384 | -0.19701 | 36994 ft | 452 kts | 45° |
| 2026-05-07 16:15 | 48.29819 | -0.12991 | 36994 ft | 452 kts | 45° |
| 2026-05-07 16:16 | 48.34211 | -0.06334 | 36996 ft | 452 kts | 45° |
| 2026-05-07 16:16 | 48.38643 | 0.00401 | 37000 ft | 452 kts | 45° |
| 2026-05-07 16:17 | 48.43057 | 0.07126 | 37000 ft | 452 kts | 45° |
| 2026-05-07 16:17 | 48.47482 | 0.13887 | 37000 ft | 452 kts | 45° |
| 2026-05-07 16:18 | 48.51892 | 0.20642 | 36997 ft | 453 kts | 45° |
| 2026-05-07 16:18 | 48.56266 | 0.27360 | 37001 ft | 452 kts | 45° |
| 2026-05-07 16:19 | 48.60657 | 0.34122 | 36998 ft | 452 kts | 45° |
| 2026-05-07 16:19 | 48.65042 | 0.40892 | 37000 ft | 451 kts | 45° |
| 2026-05-07 16:20 | 48.69437 | 0.47693 | 36998 ft | 451 kts | 45° |
| 2026-05-07 16:20 | 48.73806 | 0.54475 | 37004 ft | 451 kts | 45° |
| 2026-05-07 16:21 | 48.78174 | 0.61272 | 37005 ft | 451 kts | 45° |
| 2026-05-07 16:21 | 48.82552 | 0.68111 | 37007 ft | 451 kts | 45° |
| 2026-05-07 16:22 | 48.86926 | 0.74982 | 37012 ft | 452 kts | 45° |
| 2026-05-07 16:22 | 48.91264 | 0.81801 | 37011 ft | 452 kts | 45° |
| 2026-05-07 16:23 | 48.95648 | 0.88704 | 37011 ft | 452 kts | 45° |
| 2026-05-07 16:23 | 48.99991 | 0.95557 | 37012 ft | 451 kts | 45° |
| 2026-05-07 16:24 | 49.04327 | 1.02413 | 37017 ft | 451 kts | 45° |
| 2026-05-07 16:24 | 49.08682 | 1.09317 | 37020 ft | 451 kts | 45° |
| 2026-05-07 16:25 | 49.13010 | 1.16173 | 37024 ft | 451 kts | 45° |
| 2026-05-07 16:25 | 49.17353 | 1.23056 | 37022 ft | 451 kts | 45° |
| 2026-05-07 16:26 | 49.21696 | 1.29980 | 37022 ft | 452 kts | 45° |
| 2026-05-07 16:26 | 49.26017 | 1.36904 | 37021 ft | 452 kts | 45° |
| 2026-05-07 16:27 | 49.30340 | 1.43850 | 37020 ft | 451 kts | 45° |
| 2026-05-07 16:27 | 49.34659 | 1.50811 | 37017 ft | 451 kts | 45° |
| 2026-05-07 16:28 | 49.38981 | 1.57794 | 37020 ft | 451 kts | 45° |
| 2026-05-07 16:28 | 49.43274 | 1.64749 | 37017 ft | 451 kts | 45° |
| 2026-05-07 16:29 | 49.47577 | 1.71765 | 37018 ft | 451 kts | 46° |
| 2026-05-07 16:29 | 49.51855 | 1.78756 | 37018 ft | 451 kts | 46° |
| 2026-05-07 16:30 | 49.56150 | 1.85782 | 37022 ft | 451 kts | 46° |
| 2026-05-07 16:30 | 49.60454 | 1.92834 | 37025 ft | 450 kts | 46° |
| 2026-05-07 16:31 | 49.64726 | 1.99854 | 37022 ft | 450 kts | 46° |
| 2026-05-07 16:31 | 49.69011 | 2.06914 | 37023 ft | 451 kts | 46° |
| 2026-05-07 16:32 | 49.73981 | 2.15125 | 37028 ft | 451 kts | 46° |
| 2026-05-07 16:32 | 49.77558 | 2.21053 | 36931 ft | 452 kts | 46° |
| 2026-05-07 16:32 | 49.79677 | 2.24569 | 36702 ft | 450 kts | 46° |
| 2026-05-07 16:33 | 49.81803 | 2.28102 | 36480 ft | 447 kts | 46° |
| 2026-05-07 16:33 | 49.83915 | 2.31618 | 36275 ft | 445 kts | 46° |
| 2026-05-07 16:33 | 49.86031 | 2.35144 | 36123 ft | 442 kts | 46° |
| 2026-05-07 16:33 | 49.88102 | 2.38601 | 35924 ft | 441 kts | 46° |
| 2026-05-07 16:34 | 49.90197 | 2.42103 | 35626 ft | 441 kts | 46° |
| 2026-05-07 16:34 | 49.92297 | 2.45619 | 35210 ft | 444 kts | 45° |
| 2026-05-07 16:34 | 49.94407 | 2.49156 | 34538 ft | 449 kts | 45° |
| 2026-05-07 16:34 | 49.96516 | 2.52694 | 33841 ft | 451 kts | 45° |
| 2026-05-07 16:35 | 49.98645 | 2.56269 | 33184 ft | 451 kts | 45° |
| 2026-05-07 16:35 | 50.00755 | 2.59819 | 32545 ft | 452 kts | 45° |
| 2026-05-07 16:35 | 50.02889 | 2.63415 | 31902 ft | 451 kts | 45° |
| 2026-05-07 16:35 | 50.05722 | 2.68205 | 31033 ft | 451 kts | 46° |
| 2026-05-07 16:36 | 50.07117 | 2.70572 | 30586 ft | 451 kts | 46° |
| 2026-05-07 16:36 | 50.09237 | 2.74175 | 29905 ft | 450 kts | 47° |
| 2026-05-07 16:36 | 50.11338 | 2.77738 | 29218 ft | 449 kts | 46° |
| 2026-05-07 16:36 | 50.13464 | 2.81327 | 28528 ft | 449 kts | 46° |
| 2026-05-07 16:37 | 50.15568 | 2.84884 | 28068 ft | 442 kts | 46° |
| 2026-05-07 16:37 | 50.17634 | 2.88388 | 27609 ft | 437 kts | 46° |
| 2026-05-07 16:37 | 50.19653 | 2.91821 | 27157 ft | 432 kts | 47° |
| 2026-05-07 16:37 | 50.21672 | 2.95264 | 26699 ft | 427 kts | 47° |
| 2026-05-07 16:38 | 50.23673 | 2.98680 | 26245 ft | 422 kts | 47° |
| 2026-05-07 16:38 | 50.25638 | 3.02042 | 25798 ft | 418 kts | 47° |
| 2026-05-07 16:38 | 50.27580 | 3.05368 | 25359 ft | 414 kts | 47° |
| 2026-05-07 16:38 | 50.29493 | 3.08651 | 24915 ft | 410 kts | 47° |
| 2026-05-07 16:39 | 50.31421 | 3.11961 | 24466 ft | 407 kts | 47° |
| 2026-05-07 16:39 | 50.33299 | 3.15190 | 24012 ft | 404 kts | 47° |
| 2026-05-07 16:39 | 50.35187 | 3.18443 | 23569 ft | 400 kts | 47° |
| 2026-05-07 16:39 | 50.37049 | 3.21653 | 23133 ft | 397 kts | 47° |
| 2026-05-07 16:40 | 50.38886 | 3.24828 | 22695 ft | 395 kts | 47° |
| 2026-05-07 16:40 | 50.40734 | 3.27957 | 22249 ft | 392 kts | 45° |
| 2026-05-07 16:40 | 50.42662 | 3.31010 | 21808 ft | 389 kts | 44° |
| 2026-05-07 16:40 | 50.45203 | 3.34968 | 21218 ft | 386 kts | 44° |
| 2026-05-07 16:41 | 50.46467 | 3.36939 | 20928 ft | 384 kts | 44° |
| 2026-05-07 16:41 | 50.48349 | 3.39879 | 20491 ft | 382 kts | 44° |
| 2026-05-07 16:41 | 50.50229 | 3.42825 | 20047 ft | 380 kts | 44° |
| 2026-05-07 16:41 | 50.52084 | 3.45736 | 19612 ft | 377 kts | 44° |
| 2026-05-07 16:42 | 50.53976 | 3.48542 | 19167 ft | 375 kts | 40° |
| 2026-05-07 16:42 | 50.55985 | 3.51195 | 18662 ft | 374 kts | 38° |
| 2026-05-07 16:42 | 50.57985 | 3.53754 | 18215 ft | 372 kts | 38° |
| 2026-05-07 16:42 | 50.59991 | 3.56322 | 17775 ft | 369 kts | 38° |
| 2026-05-07 16:43 | 50.61963 | 3.58862 | 17350 ft | 367 kts | 38° |
| 2026-05-07 16:43 | 50.63918 | 3.61394 | 16949 ft | 363 kts | 38° |
| 2026-05-07 16:43 | 50.65842 | 3.63897 | 16536 ft | 361 kts | 39° |
| 2026-05-07 16:43 | 50.67762 | 3.66405 | 16111 ft | 358 kts | 39° |
| 2026-05-07 16:44 | 50.69654 | 3.68892 | 15694 ft | 356 kts | 40° |
| 2026-05-07 16:44 | 50.71532 | 3.71362 | 15275 ft | 353 kts | 40° |
| 2026-05-07 16:44 | 50.73403 | 3.73824 | 14855 ft | 351 kts | 39° |
| 2026-05-07 16:44 | 50.75256 | 3.76259 | 14441 ft | 349 kts | 39° |
| 2026-05-07 16:45 | 50.77099 | 3.78681 | 14030 ft | 346 kts | 39° |
| 2026-05-07 16:45 | 50.78956 | 3.81123 | 13615 ft | 344 kts | 39° |
| 2026-05-07 16:45 | 50.80770 | 3.83512 | 13208 ft | 342 kts | 39° |
| 2026-05-07 16:45 | 50.83201 | 3.86712 | 12659 ft | 339 kts | 40° |
| 2026-05-07 16:46 | 50.84355 | 3.88235 | 12400 ft | 337 kts | 40° |
| 2026-05-07 16:46 | 50.86179 | 3.90642 | 11987 ft | 335 kts | 40° |
| 2026-05-07 16:46 | 50.87862 | 3.92867 | 11601 ft | 333 kts | 40° |
| 2026-05-07 16:46 | 50.89694 | 3.95292 | 11180 ft | 331 kts | 40° |
| 2026-05-07 16:47 | 50.91425 | 3.97638 | 10774 ft | 329 kts | 44° |
| 2026-05-07 16:47 | 50.92842 | 4.00457 | 10365 ft | 327 kts | 60° |
| 2026-05-07 16:47 | 50.93762 | 4.03660 | 10197 ft | 315 kts | 70° |
| 2026-05-07 16:47 | 50.94720 | 4.07890 | 10095 ft | 295 kts | 71° |
| 2026-05-07 16:48 | 50.95166 | 4.09908 | 10045 ft | 286 kts | 71° |
| 2026-05-07 16:48 | 50.95818 | 4.12840 | 9813 ft | 282 kts | 71° |
| 2026-05-07 16:48 | 50.96476 | 4.15773 | 9458 ft | 283 kts | 71° |
| 2026-05-07 16:48 | 50.97148 | 4.18745 | 9133 ft | 286 kts | 70° |
| 2026-05-07 16:49 | 50.97809 | 4.21659 | 8836 ft | 285 kts | 70° |
| 2026-05-07 16:49 | 50.98479 | 4.24611 | 8531 ft | 283 kts | 70° |
| 2026-05-07 16:49 | 50.99145 | 4.27542 | 8233 ft | 281 kts | 70° |
| 2026-05-07 16:49 | 50.99797 | 4.30412 | 7932 ft | 279 kts | 70° |
| 2026-05-07 16:50 | 51.00447 | 4.33278 | 7633 ft | 277 kts | 70° |
| 2026-05-07 16:50 | 51.01102 | 4.36166 | 7328 ft | 275 kts | 70° |
| 2026-05-07 16:50 | 51.01750 | 4.39030 | 7029 ft | 274 kts | 70° |
| 2026-05-07 16:50 | 51.02387 | 4.41844 | 6730 ft | 272 kts | 70° |
| 2026-05-07 16:51 | 51.03005 | 4.44582 | 6448 ft | 269 kts | 70° |
| 2026-05-07 16:51 | 51.03637 | 4.47387 | 6186 ft | 266 kts | 70° |
| 2026-05-07 16:51 | 51.04253 | 4.50130 | 5905 ft | 263 kts | 70° |
| 2026-05-07 16:51 | 51.04861 | 4.52841 | 5619 ft | 261 kts | 70° |
| 2026-05-07 16:52 | 51.05473 | 4.55566 | 5326 ft | 259 kts | 70° |
| 2026-05-07 16:52 | 51.06077 | 4.58269 | 5044 ft | 260 kts | 70° |
| 2026-05-07 16:52 | 51.06678 | 4.60975 | 4974 ft | 262 kts | 70° |
| 2026-05-07 16:52 | 51.07286 | 4.63700 | 4909 ft | 257 kts | 70° |
| 2026-05-07 16:53 | 51.07854 | 4.66229 | 4671 ft | 252 kts | 70° |
| 2026-05-07 16:53 | 51.08246 | 4.68824 | 4375 ft | 249 kts | 91° |
| 2026-05-07 16:53 | 51.07750 | 4.71456 | 4028 ft | 249 kts | 119° |
| 2026-05-07 16:53 | 51.06601 | 4.73464 | 3667 ft | 251 kts | 148° |
| 2026-05-07 16:54 | 51.04996 | 4.74365 | 3351 ft | 246 kts | 165° |
| 2026-05-07 16:54 | 51.03340 | 4.74958 | 2937 ft | 242 kts | 166° |
| 2026-05-07 16:54 | 51.01684 | 4.75538 | 2544 ft | 243 kts | 166° |
| 2026-05-07 16:54 | 51.00008 | 4.75871 | 2172 ft | 245 kts | 187° |
| 2026-05-07 16:55 | 50.98501 | 4.74750 | 1971 ft | 237 kts | 226° |
| 2026-05-07 16:55 | 50.97580 | 4.72693 | 1971 ft | 220 kts | 245° |
| 2026-05-07 16:55 | 50.97002 | 4.70544 | 1984 ft | 204 kts | 250° |
| 2026-05-07 16:55 | 50.96503 | 4.68540 | 2000 ft | 188 kts | 249° |
| 2026-05-07 16:56 | 50.96013 | 4.66724 | 1952 ft | 171 kts | 247° |
| 2026-05-07 16:56 | 50.95539 | 4.65065 | 1962 ft | 160 kts | 246° |
| 2026-05-07 16:56 | 50.94604 | 4.61857 | 1811 ft | 160 kts | 246° |
| 2026-05-07 16:57 | 50.94147 | 4.60287 | 1593 ft | 150 kts | 246° |
| 2026-05-07 16:57 | 50.93726 | 4.58835 | 1389 ft | 145 kts | 246° |
| 2026-05-07 16:57 | 50.93304 | 4.57378 | 1207 ft | 144 kts | 247° |
| 2026-05-07 16:57 | 50.92886 | 4.55932 | 1022 ft | 143 kts | 247° |
| 2026-05-07 16:58 | 50.92475 | 4.54513 | 835 ft | 141 kts | 247° |
| 2026-05-07 16:58 | 50.92067 | 4.53101 | 645 ft | 140 kts | 247° |
| 2026-05-07 16:58 | 50.91659 | 4.51697 | 452 ft | 140 kts | 247° |
| 2026-05-07 16:58 | 50.91259 | 4.50295 | 269 ft | 139 kts | 248° |
| 2026-05-07 16:59 | 50.90870 | 4.48945 | 192 ft | 122 kts | 246° |
| 2026-05-07 16:59 | 50.90601 | 4.48017 | 192 ft | 56 kts | 246° |
| 2026-05-07 16:59 | 50.90469 | 4.47707 | 192 ft | 28 kts | 219° |
| 2026-05-07 16:59 | 50.90320 | 4.47628 | 192 ft | 12 kts | 104° |
| 2026-05-07 17:00 | 50.90335 | 4.47729 | 192 ft | 9 kts | 63° |
| 2026-05-07 17:00 | 50.90355 | 4.47793 | 192 ft | 10 kts | 65° |
| 2026-05-07 17:00 | 50.90385 | 4.47898 | 192 ft | 11 kts | 66° |
| 2026-05-07 17:00 | 50.90398 | 4.48010 | 192 ft | 10 kts | 129° |
| 2026-05-07 17:01 | 50.90370 | 4.48114 | 192 ft | 11 kts | 76° |
| 2026-05-07 17:01 | 50.90400 | 4.48222 | 192 ft | 10 kts | 63° |
| 2026-05-07 17:01 | 50.90433 | 4.48337 | 192 ft | 12 kts | 66° |
| 2026-05-07 17:01 | 50.90482 | 4.48505 | 192 ft | 13 kts | 66° |
| 2026-05-07 17:02 | 50.90507 | 4.48594 | 192 ft | 13 kts | 66° |
| 2026-05-07 17:02 | 50.90548 | 4.48735 | 192 ft | 14 kts | 66° |
| 2026-05-07 17:02 | 50.90590 | 4.48882 | 192 ft | 14 kts | 66° |
| 2026-05-07 17:02 | 50.90634 | 4.49036 | 192 ft | 15 kts | 66° |
| 2026-05-07 17:03 | 50.90646 | 4.49140 | 192 ft | 8 kts | 127° |
| 2026-05-07 17:03 | 50.90588 | 4.49189 | 192 ft | 10 kts | 160° |
| 2026-05-07 17:03 | 50.90518 | 4.49229 | 192 ft | 11 kts | 158° |
| 2026-05-07 17:03 | 50.90441 | 4.49283 | 192 ft | 12 kts | 155° |
| 2026-05-07 17:04 | 50.90389 | 4.49276 | 192 ft | 8 kts | 252° |
| 2026-05-07 17:04 | 50.90362 | 4.49184 | 192 ft | 10 kts | 246° |
| 2026-05-07 17:04 | 50.90314 | 4.49016 | 192 ft | 20 kts | 246° |
| 2026-05-07 17:04 | 50.90254 | 4.48810 | 192 ft | 20 kts | 245° |
| 2026-05-07 17:05 | 50.90196 | 4.48606 | 192 ft | 20 kts | 245° |
| 2026-05-07 17:05 | 50.90146 | 4.48430 | 192 ft | 10 kts | 258° |
| 2026-05-07 17:05 | 50.90181 | 4.48374 | 192 ft | 6 kts | 336° |
| 2026-05-07 17:05 | 50.90218 | 4.48348 | 192 ft | 0 kts | 336° |